sensor_id;sensor_type;location;lat;lon;timestamp;P1;durP1;ratioP1;P2;durP2;ratioP2
23404;SDS011;11875;49.356;2.718;2022-12-29T00:01:30;2.83;;;1.07;;
23404;SDS011;11875;49.356;2.718;2022-12-29T00:03:56;2.80;;;1.20;;
23404;SDS011;11875;49.356;2.718;2022-12-29T00:06:22;2.27;;;1.23;;
23404;SDS011;11875;49.356;2.718;2022-12-29T00:08:48;1.50;;;0.90;;
23404;SDS011;11875;49.356;2.718;2022-12-29T00:11:18;1.40;;;1.00;;
23404;SDS011;11875;49.356;2.718;2022-12-29T00:13:48;1.33;;;0.87;;
23404;SDS011;11875;49.356;2.718;2022-12-29T00:16:33;1.97;;;0.70;;
23404;SDS011;11875;49.356;2.718;2022-12-29T00:19:00;2.57;;;1.23;;
23404;SDS011;11875;49.356;2.718;2022-12-29T00:21:27;2.00;;;1.10;;
23404;SDS011;11875;49.356;2.718;2022-12-29T00:24:12;1.17;;;1.03;;
23404;SDS011;11875;49.356;2.718;2022-12-29T00:26:39;2.50;;;0.90;;
23404;SDS011;11875;49.356;2.718;2022-12-29T00:29:24;2.93;;;1.13;;
23404;SDS011;11875;49.356;2.718;2022-12-29T00:32:09;1.73;;;0.90;;
23404;SDS011;11875;49.356;2.718;2022-12-29T00:34:55;3.43;;;1.00;;
23404;SDS011;11875;49.356;2.718;2022-12-29T00:37:47;1.57;;;0.70;;
23404;SDS011;11875;49.356;2.718;2022-12-29T00:40:40;3.57;;;1.10;;
23404;SDS011;11875;49.356;2.718;2022-12-29T00:43:24;2.77;;;1.00;;
23404;SDS011;11875;49.356;2.718;2022-12-29T00:46:08;2.87;;;0.90;;
23404;SDS011;11875;49.356;2.718;2022-12-29T00:48:34;3.87;;;1.00;;
23404;SDS011;11875;49.356;2.718;2022-12-29T00:51:18;2.40;;;0.70;;
23404;SDS011;11875;49.356;2.718;2022-12-29T00:53:44;1.43;;;0.90;;
23404;SDS011;11875;49.356;2.718;2022-12-29T00:56:10;2.60;;;1.43;;
23404;SDS011;11875;49.356;2.718;2022-12-29T00:58:35;0.63;;;0.50;;
23404;SDS011;11875;49.356;2.718;2022-12-29T01:01:06;1.77;;;0.70;;
23404;SDS011;11875;49.356;2.718;2022-12-29T01:03:34;2.40;;;0.63;;
23404;SDS011;11875;49.356;2.718;2022-12-29T01:06:05;1.43;;;0.70;;
23404;SDS011;11875;49.356;2.718;2022-12-29T01:08:32;3.93;;;0.80;;
23404;SDS011;11875;49.356;2.718;2022-12-29T01:10:59;1.53;;;0.60;;
23404;SDS011;11875;49.356;2.718;2022-12-29T01:13:30;0.50;;;0.50;;
23404;SDS011;11875;49.356;2.718;2022-12-29T01:15:56;3.10;;;0.60;;
23404;SDS011;11875;49.356;2.718;2022-12-29T01:18:22;1.00;;;0.60;;
23404;SDS011;11875;49.356;2.718;2022-12-29T01:20:49;1.47;;;0.60;;
23404;SDS011;11875;49.356;2.718;2022-12-29T01:23:15;2.70;;;0.73;;
23404;SDS011;11875;49.356;2.718;2022-12-29T01:25:42;1.37;;;0.80;;
23404;SDS011;11875;49.356;2.718;2022-12-29T01:28:08;2.63;;;0.80;;
23404;SDS011;11875;49.356;2.718;2022-12-29T01:30:34;0.53;;;0.50;;
23404;SDS011;11875;49.356;2.718;2022-12-29T01:33:00;1.53;;;0.60;;
23404;SDS011;11875;49.356;2.718;2022-12-29T01:35:26;3.00;;;0.80;;
23404;SDS011;11875;49.356;2.718;2022-12-29T01:37:52;1.30;;;0.60;;
23404;SDS011;11875;49.356;2.718;2022-12-29T01:40:18;1.27;;;0.53;;
23404;SDS011;11875;49.356;2.718;2022-12-29T01:42:44;2.03;;;0.90;;
23404;SDS011;11875;49.356;2.718;2022-12-29T01:47:37;1.20;;;0.70;;
23404;SDS011;11875;49.356;2.718;2022-12-29T01:50:09;2.53;;;0.83;;
23404;SDS011;11875;49.356;2.718;2022-12-29T01:52:40;3.47;;;0.77;;
23404;SDS011;11875;49.356;2.718;2022-12-29T01:55:12;4.47;;;0.63;;
23404;SDS011;11875;49.356;2.718;2022-12-29T01:57:39;3.07;;;0.90;;
23404;SDS011;11875;49.356;2.718;2022-12-29T02:00:10;3.73;;;0.80;;
23404;SDS011;11875;49.356;2.718;2022-12-29T02:02:38;4.50;;;1.00;;
23404;SDS011;11875;49.356;2.718;2022-12-29T02:05:09;4.20;;;0.70;;
23404;SDS011;11875;49.356;2.718;2022-12-29T02:07:39;3.57;;;0.60;;
23404;SDS011;11875;49.356;2.718;2022-12-29T02:10:05;2.27;;;0.67;;
23404;SDS011;11875;49.356;2.718;2022-12-29T02:12:31;2.03;;;0.63;;
23404;SDS011;11875;49.356;2.718;2022-12-29T02:14:58;3.10;;;0.70;;
23404;SDS011;11875;49.356;2.718;2022-12-29T02:18:03;1.97;;;0.80;;
23404;SDS011;11875;49.356;2.718;2022-12-29T02:31:41;2.73;;;0.73;;
23404;SDS011;11875;49.356;2.718;2022-12-29T02:37:15;3.27;;;0.60;;
23404;SDS011;11875;49.356;2.718;2022-12-29T02:42:43;2.83;;;0.83;;
23404;SDS011;11875;49.356;2.718;2022-12-29T02:45:12;3.60;;;0.77;;
23404;SDS011;11875;49.356;2.718;2022-12-29T02:47:47;7.37;;;0.83;;
23404;SDS011;11875;49.356;2.718;2022-12-29T02:50:36;3.80;;;0.90;;
23404;SDS011;11875;49.356;2.718;2022-12-29T02:53:06;3.80;;;0.77;;
23404;SDS011;11875;49.356;2.718;2022-12-29T02:55:36;5.27;;;1.00;;
23404;SDS011;11875;49.356;2.718;2022-12-29T02:58:21;4.40;;;0.83;;
23404;SDS011;11875;49.356;2.718;2022-12-29T03:03:45;7.07;;;1.07;;
23404;SDS011;11875;49.356;2.718;2022-12-29T03:09:34;4.10;;;1.10;;
23404;SDS011;11875;49.356;2.718;2022-12-29T03:12:21;3.37;;;1.17;;
23404;SDS011;11875;49.356;2.718;2022-12-29T03:15:15;6.90;;;1.80;;
23404;SDS011;11875;49.356;2.718;2022-12-29T03:20:56;7.53;;;1.47;;
23404;SDS011;11875;49.356;2.718;2022-12-29T03:23:44;6.47;;;1.07;;
23404;SDS011;11875;49.356;2.718;2022-12-29T03:26:15;3.37;;;0.90;;
23404;SDS011;11875;49.356;2.718;2022-12-29T03:28:52;5.53;;;1.10;;
23404;SDS011;11875;49.356;2.718;2022-12-29T03:31:19;6.90;;;1.13;;
23404;SDS011;11875;49.356;2.718;2022-12-29T03:33:48;7.60;;;1.50;;
23404;SDS011;11875;49.356;2.718;2022-12-29T03:36:28;9.50;;;1.13;;
23404;SDS011;11875;49.356;2.718;2022-12-29T03:39:06;6.30;;;1.27;;
23404;SDS011;11875;49.356;2.718;2022-12-29T03:41:36;7.47;;;1.40;;
23404;SDS011;11875;49.356;2.718;2022-12-29T03:44:07;9.10;;;1.33;;
23404;SDS011;11875;49.356;2.718;2022-12-29T03:46:34;6.10;;;1.20;;
23404;SDS011;11875;49.356;2.718;2022-12-29T03:48:59;4.43;;;1.07;;
23404;SDS011;11875;49.356;2.718;2022-12-29T03:51:25;7.03;;;1.27;;
23404;SDS011;11875;49.356;2.718;2022-12-29T03:53:51;5.47;;;1.10;;
23404;SDS011;11875;49.356;2.718;2022-12-29T03:56:17;5.40;;;1.07;;
23404;SDS011;11875;49.356;2.718;2022-12-29T03:58:43;4.63;;;1.23;;
23404;SDS011;11875;49.356;2.718;2022-12-29T04:01:08;5.87;;;1.20;;
23404;SDS011;11875;49.356;2.718;2022-12-29T04:03:34;6.57;;;1.70;;
23404;SDS011;11875;49.356;2.718;2022-12-29T04:06:00;7.30;;;1.40;;
23404;SDS011;11875;49.356;2.718;2022-12-29T04:08:27;5.10;;;1.20;;
23404;SDS011;11875;49.356;2.718;2022-12-29T04:10:52;6.83;;;1.70;;
23404;SDS011;11875;49.356;2.718;2022-12-29T04:13:19;4.67;;;1.37;;
23404;SDS011;11875;49.356;2.718;2022-12-29T04:15:45;8.20;;;1.17;;
23404;SDS011;11875;49.356;2.718;2022-12-29T04:18:12;5.33;;;1.37;;
23404;SDS011;11875;49.356;2.718;2022-12-29T04:20:38;3.70;;;1.00;;
23404;SDS011;11875;49.356;2.718;2022-12-29T04:23:23;7.60;;;1.17;;
23404;SDS011;11875;49.356;2.718;2022-12-29T04:25:48;3.70;;;1.10;;
23404;SDS011;11875;49.356;2.718;2022-12-29T04:28:15;6.27;;;1.10;;
23404;SDS011;11875;49.356;2.718;2022-12-29T04:30:41;7.87;;;1.30;;
23404;SDS011;11875;49.356;2.718;2022-12-29T04:33:07;5.17;;;1.10;;
23404;SDS011;11875;49.356;2.718;2022-12-29T04:35:33;2.27;;;1.10;;
23404;SDS011;11875;49.356;2.718;2022-12-29T04:37:59;7.10;;;1.03;;
23404;SDS011;11875;49.356;2.718;2022-12-29T04:40:24;3.30;;;1.33;;
23404;SDS011;11875;49.356;2.718;2022-12-29T04:42:50;3.93;;;1.23;;
23404;SDS011;11875;49.356;2.718;2022-12-29T04:45:16;7.67;;;1.40;;
23404;SDS011;11875;49.356;2.718;2022-12-29T04:47:42;5.07;;;1.17;;
23404;SDS011;11875;49.356;2.718;2022-12-29T04:50:08;7.50;;;1.30;;
23404;SDS011;11875;49.356;2.718;2022-12-29T04:52:34;7.60;;;1.53;;
23404;SDS011;11875;49.356;2.718;2022-12-29T04:55:00;5.13;;;1.20;;
23404;SDS011;11875;49.356;2.718;2022-12-29T04:57:26;6.67;;;1.23;;
23404;SDS011;11875;49.356;2.718;2022-12-29T04:59:52;5.07;;;0.93;;
23404;SDS011;11875;49.356;2.718;2022-12-29T05:02:18;7.40;;;1.20;;
23404;SDS011;11875;49.356;2.718;2022-12-29T05:04:44;4.90;;;1.13;;
23404;SDS011;11875;49.356;2.718;2022-12-29T05:07:11;8.03;;;1.53;;
23404;SDS011;11875;49.356;2.718;2022-12-29T05:09:36;4.13;;;1.10;;
23404;SDS011;11875;49.356;2.718;2022-12-29T05:12:02;7.43;;;1.17;;
23404;SDS011;11875;49.356;2.718;2022-12-29T05:14:28;4.23;;;1.20;;
23404;SDS011;11875;49.356;2.718;2022-12-29T05:16:54;6.60;;;1.20;;
23404;SDS011;11875;49.356;2.718;2022-12-29T05:19:21;9.27;;;1.63;;
23404;SDS011;11875;49.356;2.718;2022-12-29T05:21:47;4.30;;;1.30;;
23404;SDS011;11875;49.356;2.718;2022-12-29T05:24:12;5.00;;;1.07;;
23404;SDS011;11875;49.356;2.718;2022-12-29T05:26:38;3.57;;;1.30;;
23404;SDS011;11875;49.356;2.718;2022-12-29T05:29:06;7.80;;;1.43;;
23404;SDS011;11875;49.356;2.718;2022-12-29T05:31:32;5.83;;;1.23;;
23404;SDS011;11875;49.356;2.718;2022-12-29T05:33:58;7.10;;;1.40;;
23404;SDS011;11875;49.356;2.718;2022-12-29T05:36:24;10.60;;;1.47;;
23404;SDS011;11875;49.356;2.718;2022-12-29T05:38:52;5.33;;;1.33;;
23404;SDS011;11875;49.356;2.718;2022-12-29T05:41:18;4.47;;;1.23;;
23404;SDS011;11875;49.356;2.718;2022-12-29T05:43:45;3.83;;;1.10;;
23404;SDS011;11875;49.356;2.718;2022-12-29T05:46:12;10.40;;;1.80;;
23404;SDS011;11875;49.356;2.718;2022-12-29T05:48:37;5.23;;;1.27;;
23404;SDS011;11875;49.356;2.718;2022-12-29T05:51:03;3.07;;;0.90;;
23404;SDS011;11875;49.356;2.718;2022-12-29T05:53:29;8.67;;;1.57;;
23404;SDS011;11875;49.356;2.718;2022-12-29T05:55:56;6.77;;;1.20;;
23404;SDS011;11875;49.356;2.718;2022-12-29T05:58:21;11.20;;;1.40;;
23404;SDS011;11875;49.356;2.718;2022-12-29T06:00:48;6.50;;;1.20;;
23404;SDS011;11875;49.356;2.718;2022-12-29T06:03:14;8.37;;;1.10;;
23404;SDS011;11875;49.356;2.718;2022-12-29T06:05:40;3.17;;;1.37;;
23404;SDS011;11875;49.356;2.718;2022-12-29T06:08:06;7.17;;;1.33;;
23404;SDS011;11875;49.356;2.718;2022-12-29T06:10:32;6.27;;;1.30;;
23404;SDS011;11875;49.356;2.718;2022-12-29T06:12:58;10.67;;;1.57;;
23404;SDS011;11875;49.356;2.718;2022-12-29T06:15:23;7.23;;;1.10;;
23404;SDS011;11875;49.356;2.718;2022-12-29T06:17:49;3.70;;;1.03;;
23404;SDS011;11875;49.356;2.718;2022-12-29T06:20:15;4.50;;;1.20;;
23404;SDS011;11875;49.356;2.718;2022-12-29T06:22:41;10.57;;;1.67;;
23404;SDS011;11875;49.356;2.718;2022-12-29T06:25:06;10.90;;;1.20;;
23404;SDS011;11875;49.356;2.718;2022-12-29T06:27:33;6.03;;;1.43;;
23404;SDS011;11875;49.356;2.718;2022-12-29T06:29:58;5.90;;;1.57;;
23404;SDS011;11875;49.356;2.718;2022-12-29T06:32:24;5.37;;;1.23;;
23404;SDS011;11875;49.356;2.718;2022-12-29T06:34:50;5.73;;;1.20;;
23404;SDS011;11875;49.356;2.718;2022-12-29T06:37:16;8.20;;;1.60;;
23404;SDS011;11875;49.356;2.718;2022-12-29T06:39:42;8.53;;;1.30;;
23404;SDS011;11875;49.356;2.718;2022-12-29T06:42:08;7.67;;;1.93;;
23404;SDS011;11875;49.356;2.718;2022-12-29T06:44:34;9.07;;;1.30;;
23404;SDS011;11875;49.356;2.718;2022-12-29T06:47:00;7.07;;;1.40;;
23404;SDS011;11875;49.356;2.718;2022-12-29T06:49:26;6.67;;;1.93;;
23404;SDS011;11875;49.356;2.718;2022-12-29T06:51:53;7.03;;;1.47;;
23404;SDS011;11875;49.356;2.718;2022-12-29T06:54:18;7.37;;;1.60;;
23404;SDS011;11875;49.356;2.718;2022-12-29T06:56:44;5.67;;;1.50;;
23404;SDS011;11875;49.356;2.718;2022-12-29T06:59:10;13.50;;;1.53;;
23404;SDS011;11875;49.356;2.718;2022-12-29T07:01:35;7.17;;;1.30;;
23404;SDS011;11875;49.356;2.718;2022-12-29T07:04:04;3.73;;;1.10;;
23404;SDS011;11875;49.356;2.718;2022-12-29T07:06:31;9.87;;;1.70;;
23404;SDS011;11875;49.356;2.718;2022-12-29T07:08:57;8.03;;;1.57;;
23404;SDS011;11875;49.356;2.718;2022-12-29T07:11:22;8.67;;;1.60;;
23404;SDS011;11875;49.356;2.718;2022-12-29T07:13:48;6.33;;;1.33;;
23404;SDS011;11875;49.356;2.718;2022-12-29T07:16:14;5.77;;;1.50;;
23404;SDS011;11875;49.356;2.718;2022-12-29T07:18:40;14.60;;;2.00;;
23404;SDS011;11875;49.356;2.718;2022-12-29T07:21:05;12.87;;;1.80;;
23404;SDS011;11875;49.356;2.718;2022-12-29T07:23:31;6.37;;;1.40;;
23404;SDS011;11875;49.356;2.718;2022-12-29T07:28:27;11.70;;;1.67;;
23404;SDS011;11875;49.356;2.718;2022-12-29T07:30:52;8.53;;;1.63;;
23404;SDS011;11875;49.356;2.718;2022-12-29T07:33:18;7.93;;;1.37;;
23404;SDS011;11875;49.356;2.718;2022-12-29T07:35:46;9.70;;;1.60;;
23404;SDS011;11875;49.356;2.718;2022-12-29T07:38:12;10.93;;;2.00;;
23404;SDS011;11875;49.356;2.718;2022-12-29T07:40:37;8.00;;;1.47;;
23404;SDS011;11875;49.356;2.718;2022-12-29T07:43:03;9.07;;;1.77;;
23404;SDS011;11875;49.356;2.718;2022-12-29T07:45:29;6.23;;;1.77;;
23404;SDS011;11875;49.356;2.718;2022-12-29T07:47:55;12.30;;;1.80;;
23404;SDS011;11875;49.356;2.718;2022-12-29T07:50:21;12.20;;;1.83;;
23404;SDS011;11875;49.356;2.718;2022-12-29T07:52:47;8.50;;;1.80;;
23404;SDS011;11875;49.356;2.718;2022-12-29T07:55:13;8.50;;;1.67;;
23404;SDS011;11875;49.356;2.718;2022-12-29T07:57:39;7.03;;;1.70;;
23404;SDS011;11875;49.356;2.718;2022-12-29T08:00:05;9.53;;;1.63;;
23404;SDS011;11875;49.356;2.718;2022-12-29T08:02:31;10.87;;;2.20;;
23404;SDS011;11875;49.356;2.718;2022-12-29T08:04:57;11.90;;;1.63;;
23404;SDS011;11875;49.356;2.718;2022-12-29T08:07:23;6.77;;;1.97;;
23404;SDS011;11875;49.356;2.718;2022-12-29T08:09:48;9.03;;;1.80;;
23404;SDS011;11875;49.356;2.718;2022-12-29T08:12:14;6.93;;;1.10;;
23404;SDS011;11875;49.356;2.718;2022-12-29T08:14:40;5.40;;;1.47;;
23404;SDS011;11875;49.356;2.718;2022-12-29T08:17:07;10.07;;;1.67;;
23404;SDS011;11875;49.356;2.718;2022-12-29T08:19:32;9.33;;;1.50;;
23404;SDS011;11875;49.356;2.718;2022-12-29T08:21:58;4.83;;;1.43;;
23404;SDS011;11875;49.356;2.718;2022-12-29T08:24:23;13.93;;;2.00;;
23404;SDS011;11875;49.356;2.718;2022-12-29T08:26:49;7.93;;;2.20;;
23404;SDS011;11875;49.356;2.718;2022-12-29T08:29:15;8.13;;;1.67;;
23404;SDS011;11875;49.356;2.718;2022-12-29T08:31:41;4.47;;;1.50;;
23404;SDS011;11875;49.356;2.718;2022-12-29T08:34:07;9.63;;;1.63;;
23404;SDS011;11875;49.356;2.718;2022-12-29T08:36:33;9.77;;;1.60;;
23404;SDS011;11875;49.356;2.718;2022-12-29T08:38:59;14.53;;;1.37;;
23404;SDS011;11875;49.356;2.718;2022-12-29T08:41:24;6.97;;;1.67;;
23404;SDS011;11875;49.356;2.718;2022-12-29T08:43:50;7.20;;;1.40;;
23404;SDS011;11875;49.356;2.718;2022-12-29T08:46:16;9.03;;;1.70;;
23404;SDS011;11875;49.356;2.718;2022-12-29T08:48:42;10.27;;;2.10;;
23404;SDS011;11875;49.356;2.718;2022-12-29T08:51:09;5.00;;;1.27;;
23404;SDS011;11875;49.356;2.718;2022-12-29T08:53:35;9.03;;;1.73;;
23404;SDS011;11875;49.356;2.718;2022-12-29T08:56:01;6.63;;;1.40;;
23404;SDS011;11875;49.356;2.718;2022-12-29T08:58:28;8.47;;;1.80;;
23404;SDS011;11875;49.356;2.718;2022-12-29T09:00:54;4.97;;;1.20;;
23404;SDS011;11875;49.356;2.718;2022-12-29T09:03:21;8.77;;;1.67;;
23404;SDS011;11875;49.356;2.718;2022-12-29T09:05:48;4.97;;;1.50;;
23404;SDS011;11875;49.356;2.718;2022-12-29T09:08:18;6.20;;;1.40;;
23404;SDS011;11875;49.356;2.718;2022-12-29T09:10:44;8.17;;;1.67;;
23404;SDS011;11875;49.356;2.718;2022-12-29T09:13:10;9.63;;;2.37;;
23404;SDS011;11875;49.356;2.718;2022-12-29T09:15:36;7.33;;;1.53;;
23404;SDS011;11875;49.356;2.718;2022-12-29T09:18:04;7.67;;;1.53;;
23404;SDS011;11875;49.356;2.718;2022-12-29T09:20:31;9.20;;;2.00;;
23404;SDS011;11875;49.356;2.718;2022-12-29T09:22:56;8.50;;;1.67;;
23404;SDS011;11875;49.356;2.718;2022-12-29T09:25:25;9.60;;;2.10;;
23404;SDS011;11875;49.356;2.718;2022-12-29T09:27:52;5.73;;;1.57;;
23404;SDS011;11875;49.356;2.718;2022-12-29T09:30:18;4.87;;;1.67;;
23404;SDS011;11875;49.356;2.718;2022-12-29T09:32:45;9.27;;;1.63;;
23404;SDS011;11875;49.356;2.718;2022-12-29T09:35:11;8.77;;;1.90;;
23404;SDS011;11875;49.356;2.718;2022-12-29T09:37:38;8.37;;;1.77;;
23404;SDS011;11875;49.356;2.718;2022-12-29T09:40:04;6.47;;;1.93;;
23404;SDS011;11875;49.356;2.718;2022-12-29T09:42:55;8.77;;;1.90;;
23404;SDS011;11875;49.356;2.718;2022-12-29T09:46:12;7.20;;;1.77;;
23404;SDS011;11875;49.356;2.718;2022-12-29T09:48:37;9.23;;;1.63;;
23404;SDS011;11875;49.356;2.718;2022-12-29T09:51:16;9.43;;;1.70;;
23404;SDS011;11875;49.356;2.718;2022-12-29T09:53:58;6.03;;;1.77;;
23404;SDS011;11875;49.356;2.718;2022-12-29T09:56:29;12.83;;;1.80;;
23404;SDS011;11875;49.356;2.718;2022-12-29T09:58:59;8.17;;;1.63;;
23404;SDS011;11875;49.356;2.718;2022-12-29T10:04:14;9.73;;;2.40;;
23404;SDS011;11875;49.356;2.718;2022-12-29T10:09:19;10.43;;;2.33;;
23404;SDS011;11875;49.356;2.718;2022-12-29T10:12:03;12.23;;;2.50;;
23404;SDS011;11875;49.356;2.718;2022-12-29T10:20:44;7.57;;;2.00;;
23404;SDS011;11875;49.356;2.718;2022-12-29T10:25:58;10.47;;;2.37;;
23404;SDS011;11875;49.356;2.718;2022-12-29T10:28:34;11.03;;;2.37;;
23404;SDS011;11875;49.356;2.718;2022-12-29T10:31:06;10.77;;;2.93;;
23404;SDS011;11875;49.356;2.718;2022-12-29T10:33:41;11.17;;;2.10;;
23404;SDS011;11875;49.356;2.718;2022-12-29T10:36:13;10.67;;;1.93;;
23404;SDS011;11875;49.356;2.718;2022-12-29T10:41:33;7.83;;;1.87;;
23404;SDS011;11875;49.356;2.718;2022-12-29T10:44:06;11.67;;;1.83;;
23404;SDS011;11875;49.356;2.718;2022-12-29T10:46:35;8.73;;;1.80;;
23404;SDS011;11875;49.356;2.718;2022-12-29T10:49:03;15.00;;;2.70;;
23404;SDS011;11875;49.356;2.718;2022-12-29T10:51:32;11.57;;;2.47;;
23404;SDS011;11875;49.356;2.718;2022-12-29T10:59:27;9.17;;;1.97;;
23404;SDS011;11875;49.356;2.718;2022-12-29T11:05:16;5.27;;;1.70;;
23404;SDS011;11875;49.356;2.718;2022-12-29T11:07:29;11.93;;;2.13;;
23404;SDS011;11875;49.356;2.718;2022-12-29T11:10:18;10.10;;;2.40;;
23404;SDS011;11875;49.356;2.718;2022-12-29T11:12:59;10.10;;;2.40;;
23404;SDS011;11875;49.356;2.718;2022-12-29T11:15:26;7.57;;;2.27;;
23404;SDS011;11875;49.356;2.718;2022-12-29T11:18:02;14.77;;;2.43;;
23404;SDS011;11875;49.356;2.718;2022-12-29T11:23:02;9.33;;;1.97;;
23404;SDS011;11875;49.356;2.718;2022-12-29T11:25:29;10.47;;;2.07;;
23404;SDS011;11875;49.356;2.718;2022-12-29T11:28:03;11.87;;;2.73;;
23404;SDS011;11875;49.356;2.718;2022-12-29T11:30:40;9.93;;;2.07;;
23404;SDS011;11875;49.356;2.718;2022-12-29T11:33:08;11.27;;;2.60;;
23404;SDS011;11875;49.356;2.718;2022-12-29T11:35:43;11.70;;;2.40;;
23404;SDS011;11875;49.356;2.718;2022-12-29T11:38:20;11.67;;;2.37;;
23404;SDS011;11875;49.356;2.718;2022-12-29T11:40:50;15.50;;;2.23;;
23404;SDS011;11875;49.356;2.718;2022-12-29T11:43:32;10.17;;;2.30;;
23404;SDS011;11875;49.356;2.718;2022-12-29T11:46:02;10.90;;;2.20;;
23404;SDS011;11875;49.356;2.718;2022-12-29T11:48:29;7.87;;;2.50;;
23404;SDS011;11875;49.356;2.718;2022-12-29T11:51:03;13.40;;;2.07;;
23404;SDS011;11875;49.356;2.718;2022-12-29T11:56:05;14.47;;;3.20;;
23404;SDS011;11875;49.356;2.718;2022-12-29T11:58:34;14.80;;;2.47;;
23404;SDS011;11875;49.356;2.718;2022-12-29T12:01:02;16.27;;;2.77;;
23404;SDS011;11875;49.356;2.718;2022-12-29T12:06:26;9.23;;;2.13;;
23404;SDS011;11875;49.356;2.718;2022-12-29T12:08:55;10.87;;;3.03;;
23404;SDS011;11875;49.356;2.718;2022-12-29T12:11:26;12.73;;;2.07;;
23404;SDS011;11875;49.356;2.718;2022-12-29T12:16:52;12.87;;;2.90;;
23404;SDS011;11875;49.356;2.718;2022-12-29T12:19:32;10.67;;;2.57;;
23404;SDS011;11875;49.356;2.718;2022-12-29T12:22:27;13.77;;;2.40;;
23404;SDS011;11875;49.356;2.718;2022-12-29T12:24:56;10.17;;;2.10;;
23404;SDS011;11875;49.356;2.718;2022-12-29T12:27:48;13.60;;;2.37;;
23404;SDS011;11875;49.356;2.718;2022-12-29T12:30:19;11.47;;;2.40;;
23404;SDS011;11875;49.356;2.718;2022-12-29T12:33:03;12.53;;;2.30;;
23404;SDS011;11875;49.356;2.718;2022-12-29T12:38:46;12.57;;;2.27;;
23404;SDS011;11875;49.356;2.718;2022-12-29T12:44:00;6.87;;;2.10;;
23404;SDS011;11875;49.356;2.718;2022-12-29T12:52:30;9.50;;;2.03;;
23404;SDS011;11875;49.356;2.718;2022-12-29T13:16:52;10.57;;;2.33;;
23404;SDS011;11875;49.356;2.718;2022-12-29T13:30:23;12.77;;;2.40;;
23404;SDS011;11875;49.356;2.718;2022-12-29T13:36:05;14.27;;;3.27;;
23404;SDS011;11875;49.356;2.718;2022-12-29T13:41:42;8.63;;;3.57;;
23404;SDS011;11875;49.356;2.718;2022-12-29T13:44:16;10.70;;;2.33;;
23404;SDS011;11875;49.356;2.718;2022-12-29T13:46:54;13.27;;;3.27;;
23404;SDS011;11875;49.356;2.718;2022-12-29T13:49:25;12.57;;;3.07;;
23404;SDS011;11875;49.356;2.718;2022-12-29T13:51:53;6.53;;;2.67;;
23404;SDS011;11875;49.356;2.718;2022-12-29T13:56:54;11.40;;;2.67;;
23404;SDS011;11875;49.356;2.718;2022-12-29T14:07:46;13.63;;;3.07;;
23404;SDS011;11875;49.356;2.718;2022-12-29T14:13:09;11.63;;;2.27;;
23404;SDS011;11875;49.356;2.718;2022-12-29T14:15:43;8.97;;;1.70;;
23404;SDS011;11875;49.356;2.718;2022-12-29T14:18:18;6.40;;;1.63;;
23404;SDS011;11875;49.356;2.718;2022-12-29T14:20:56;14.70;;;3.00;;
23404;SDS011;11875;49.356;2.718;2022-12-29T14:23:44;11.87;;;2.53;;
23404;SDS011;11875;49.356;2.718;2022-12-29T14:28:46;16.70;;;5.43;;
23404;SDS011;11875;49.356;2.718;2022-12-29T14:33:39;10.23;;;2.90;;
23404;SDS011;11875;49.356;2.718;2022-12-29T14:39:28;12.10;;;3.20;;
23404;SDS011;11875;49.356;2.718;2022-12-29T14:44:54;10.70;;;2.47;;
23404;SDS011;11875;49.356;2.718;2022-12-29T14:50:03;7.80;;;2.47;;
23404;SDS011;11875;49.356;2.718;2022-12-29T14:52:31;9.07;;;2.53;;
23404;SDS011;11875;49.356;2.718;2022-12-29T14:57:40;12.70;;;3.20;;
23404;SDS011;11875;49.356;2.718;2022-12-29T15:02:49;11.97;;;3.23;;
23404;SDS011;11875;49.356;2.718;2022-12-29T15:05:24;14.73;;;3.60;;
23404;SDS011;11875;49.356;2.718;2022-12-29T15:07:55;10.83;;;3.03;;
23404;SDS011;11875;49.356;2.718;2022-12-29T15:10:22;16.17;;;4.70;;
23404;SDS011;11875;49.356;2.718;2022-12-29T15:12:53;9.90;;;2.77;;
23404;SDS011;11875;49.356;2.718;2022-12-29T15:15:27;16.77;;;3.30;;
23404;SDS011;11875;49.356;2.718;2022-12-29T15:17:56;17.23;;;4.10;;
23404;SDS011;11875;49.356;2.718;2022-12-29T15:28:23;12.63;;;2.50;;
23404;SDS011;11875;49.356;2.718;2022-12-29T15:30:53;12.30;;;2.57;;
23404;SDS011;11875;49.356;2.718;2022-12-29T15:33:21;9.80;;;2.33;;
23404;SDS011;11875;49.356;2.718;2022-12-29T15:35:51;11.63;;;2.40;;
23404;SDS011;11875;49.356;2.718;2022-12-29T15:38:27;8.73;;;2.20;;
23404;SDS011;11875;49.356;2.718;2022-12-29T15:46:37;20.37;;;6.87;;
23404;SDS011;11875;49.356;2.718;2022-12-29T15:49:11;8.93;;;2.67;;
23404;SDS011;11875;49.356;2.718;2022-12-29T15:51:40;10.60;;;3.90;;
23404;SDS011;11875;49.356;2.718;2022-12-29T15:54:06;16.10;;;4.30;;
23404;SDS011;11875;49.356;2.718;2022-12-29T15:56:47;16.97;;;5.90;;
23404;SDS011;11875;49.356;2.718;2022-12-29T15:59:48;18.43;;;4.03;;
23404;SDS011;11875;49.356;2.718;2022-12-29T16:02:10;15.30;;;3.27;;
23404;SDS011;11875;49.356;2.718;2022-12-29T16:04:36;10.20;;;3.10;;
23404;SDS011;11875;49.356;2.718;2022-12-29T16:07:04;18.13;;;5.50;;
23404;SDS011;11875;49.356;2.718;2022-12-29T16:09:46;15.73;;;3.30;;
23404;SDS011;11875;49.356;2.718;2022-12-29T16:12:16;10.27;;;2.80;;
23404;SDS011;11875;49.356;2.718;2022-12-29T16:14:49;8.37;;;2.57;;
23404;SDS011;11875;49.356;2.718;2022-12-29T16:17:22;11.07;;;2.73;;
23404;SDS011;11875;49.356;2.718;2022-12-29T16:20:01;9.57;;;3.33;;
23404;SDS011;11875;49.356;2.718;2022-12-29T16:22:40;10.03;;;2.63;;
23404;SDS011;11875;49.356;2.718;2022-12-29T16:27:37;10.80;;;2.20;;
23404;SDS011;11875;49.356;2.718;2022-12-29T16:30:07;12.93;;;2.60;;
23404;SDS011;11875;49.356;2.718;2022-12-29T16:32:47;11.67;;;2.33;;
23404;SDS011;11875;49.356;2.718;2022-12-29T16:35:19;8.60;;;2.10;;
23404;SDS011;11875;49.356;2.718;2022-12-29T16:38:34;14.70;;;2.73;;
23404;SDS011;11875;49.356;2.718;2022-12-29T16:40:38;11.87;;;2.17;;
23404;SDS011;11875;49.356;2.718;2022-12-29T16:43:25;9.53;;;2.40;;
23404;SDS011;11875;49.356;2.718;2022-12-29T16:48:49;14.60;;;3.13;;
23404;SDS011;11875;49.356;2.718;2022-12-29T16:51:23;10.60;;;3.57;;
23404;SDS011;11875;49.356;2.718;2022-12-29T16:54:05;15.60;;;4.57;;
23404;SDS011;11875;49.356;2.718;2022-12-29T16:56:33;9.73;;;3.03;;
23404;SDS011;11875;49.356;2.718;2022-12-29T16:59:05;16.33;;;2.83;;
23404;SDS011;11875;49.356;2.718;2022-12-29T17:01:37;9.87;;;3.23;;
23404;SDS011;11875;49.356;2.718;2022-12-29T17:04:06;12.27;;;3.00;;
23404;SDS011;11875;49.356;2.718;2022-12-29T17:06:35;9.73;;;3.20;;
23404;SDS011;11875;49.356;2.718;2022-12-29T17:09:00;11.73;;;3.27;;
23404;SDS011;11875;49.356;2.718;2022-12-29T17:11:27;15.50;;;4.60;;
23404;SDS011;11875;49.356;2.718;2022-12-29T17:17:16;11.77;;;3.10;;
23404;SDS011;11875;49.356;2.718;2022-12-29T17:19:46;12.23;;;2.60;;
23404;SDS011;11875;49.356;2.718;2022-12-29T17:22:19;15.17;;;4.40;;
23404;SDS011;11875;49.356;2.718;2022-12-29T17:24:50;16.10;;;2.70;;
23404;SDS011;11875;49.356;2.718;2022-12-29T17:27:27;15.57;;;2.50;;
23404;SDS011;11875;49.356;2.718;2022-12-29T17:30:11;12.73;;;2.50;;
23404;SDS011;11875;49.356;2.718;2022-12-29T17:32:50;11.70;;;2.27;;
23404;SDS011;11875;49.356;2.718;2022-12-29T17:35:18;10.87;;;3.23;;
23404;SDS011;11875;49.356;2.718;2022-12-29T17:37:45;9.27;;;2.30;;
23404;SDS011;11875;49.356;2.718;2022-12-29T17:40:14;16.67;;;3.30;;
23404;SDS011;11875;49.356;2.718;2022-12-29T17:42:45;9.93;;;3.40;;
23404;SDS011;11875;49.356;2.718;2022-12-29T17:45:18;9.90;;;2.43;;
23404;SDS011;11875;49.356;2.718;2022-12-29T17:47:47;9.70;;;2.97;;
23404;SDS011;11875;49.356;2.718;2022-12-29T17:50:14;9.43;;;3.00;;
23404;SDS011;11875;49.356;2.718;2022-12-29T17:52:44;9.80;;;2.30;;
23404;SDS011;11875;49.356;2.718;2022-12-29T17:55:17;11.43;;;2.70;;